sensor_id;sensor_type;location;lat;lon;timestamp;temperature;humidity
17174;DHT22;8702;48.130;-1.696;2024-03-23T00:56:08;7.70;99.90
17174;DHT22;8702;48.130;-1.696;2024-03-23T00:58:35;7.60;99.90
17174;DHT22;8702;48.130;-1.696;2024-03-23T01:01:01;7.60;99.90
17174;DHT22;8702;48.130;-1.696;2024-03-23T01:03:29;7.70;99.90
17174;DHT22;8702;48.130;-1.696;2024-03-23T01:05:54;7.70;99.90
17174;DHT22;8702;48.130;-1.696;2024-03-23T01:08:25;7.70;99.90
17174;DHT22;8702;48.130;-1.696;2024-03-23T01:10:56;7.70;99.90
17174;DHT22;8702;48.130;-1.696;2024-03-23T01:13:22;7.70;99.90
17174;DHT22;8702;48.130;-1.696;2024-03-23T01:15:49;7.60;99.90
17174;DHT22;8702;48.130;-1.696;2024-03-23T01:18:17;7.60;99.90
17174;DHT22;8702;48.130;-1.696;2024-03-23T01:20:43;7.60;99.90
17174;DHT22;8702;48.130;-1.696;2024-03-23T01:23:10;7.50;99.90
17174;DHT22;8702;48.130;-1.696;2024-03-23T01:25:36;8.90;99.90
17174;DHT22;8702;48.130;-1.696;2024-03-23T01:28:05;7.50;99.90
17174;DHT22;8702;48.130;-1.696;2024-03-23T01:30:32;7.60;99.90
17174;DHT22;8702;48.130;-1.696;2024-03-23T01:32:58;7.50;99.90
17174;DHT22;8702;48.130;-1.696;2024-03-23T01:35:24;7.40;99.90
17174;DHT22;8702;48.130;-1.696;2024-03-23T01:37:51;7.40;99.90
17174;DHT22;8702;48.130;-1.696;2024-03-23T01:40:17;7.30;99.90
17174;DHT22;8702;48.130;-1.696;2024-03-23T01:42:55;7.30;99.90
17174;DHT22;8702;48.130;-1.696;2024-03-23T01:45:22;7.30;99.90
17174;DHT22;8702;48.130;-1.696;2024-03-23T01:47:50;7.30;99.90
17174;DHT22;8702;48.130;-1.696;2024-03-23T01:50:16;7.30;99.90
17174;DHT22;8702;48.130;-1.696;2024-03-23T01:52:43;7.30;99.90
17174;DHT22;8702;48.130;-1.696;2024-03-23T01:55:10;7.20;99.90
17174;DHT22;8702;48.130;-1.696;2024-03-23T01:57:37;7.10;99.90
17174;DHT22;8702;48.130;-1.696;2024-03-23T02:00:03;7.10;99.90
17174;DHT22;8702;48.130;-1.696;2024-03-23T02:02:32;7.10;99.90
17174;DHT22;8702;48.130;-1.696;2024-03-23T02:04:57;7.00;99.90
17174;DHT22;8702;48.130;-1.696;2024-03-23T02:07:24;7.00;99.90
17174;DHT22;8702;48.130;-1.696;2024-03-23T02:09:50;7.00;99.90
17174;DHT22;8702;48.130;-1.696;2024-03-23T02:12:18;7.10;99.90
17174;DHT22;8702;48.130;-1.696;2024-03-23T02:14:43;7.20;99.90
17174;DHT22;8702;48.130;-1.696;2024-03-23T02:17:10;7.20;99.90
17174;DHT22;8702;48.130;-1.696;2024-03-23T02:19:38;7.30;99.90
17174;DHT22;8702;48.130;-1.696;2024-03-23T02:22:05;7.20;99.90
17174;DHT22;8702;48.130;-1.696;2024-03-23T02:24:32;7.20;99.90
17174;DHT22;8702;48.130;-1.696;2024-03-23T02:26:59;7.10;99.90
17174;DHT22;8702;48.130;-1.696;2024-03-23T02:29:25;7.20;99.90
17174;DHT22;8702;48.130;-1.696;2024-03-23T02:31:52;7.20;99.90
17174;DHT22;8702;48.130;-1.696;2024-03-23T02:34:18;7.20;99.90
17174;DHT22;8702;48.130;-1.696;2024-03-23T02:36:45;7.20;99.90
17174;DHT22;8702;48.130;-1.696;2024-03-23T02:39:10;7.20;99.90
17174;DHT22;8702;48.130;-1.696;2024-03-23T02:41:39;7.20;99.90
17174;DHT22;8702;48.130;-1.696;2024-03-23T02:44:05;7.20;99.90
17174;DHT22;8702;48.130;-1.696;2024-03-23T02:46:32;7.20;99.90
17174;DHT22;8702;48.130;-1.696;2024-03-23T02:48:58;7.20;99.90
17174;DHT22;8702;48.130;-1.696;2024-03-23T02:51:25;7.20;99.90
17174;DHT22;8702;48.130;-1.696;2024-03-23T02:53:51;7.20;99.90
17174;DHT22;8702;48.130;-1.696;2024-03-23T02:56:17;7.30;99.90
17174;DHT22;8702;48.130;-1.696;2024-03-23T02:58:46;7.40;99.90
17174;DHT22;8702;48.130;-1.696;2024-03-23T03:01:12;7.40;99.90
17174;DHT22;8702;48.130;-1.696;2024-03-23T03:03:38;7.50;99.90
17174;DHT22;8702;48.130;-1.696;2024-03-23T03:06:04;7.50;99.90
17174;DHT22;8702;48.130;-1.696;2024-03-23T03:08:31;7.50;99.90
17174;DHT22;8702;48.130;-1.696;2024-03-23T03:10:57;7.50;99.90
17174;DHT22;8702;48.130;-1.696;2024-03-23T03:13:24;7.60;99.90
17174;DHT22;8702;48.130;-1.696;2024-03-23T03:15:51;7.70;99.90
17174;DHT22;8702;48.130;-1.696;2024-03-23T03:18:18;7.80;99.90
17174;DHT22;8702;48.130;-1.696;2024-03-23T03:20:45;7.80;99.90
17174;DHT22;8702;48.130;-1.696;2024-03-23T03:23:12;7.70;99.90
17174;DHT22;8702;48.130;-1.696;2024-03-23T03:25:38;7.80;99.90
17174;DHT22;8702;48.130;-1.696;2024-03-23T03:28:05;7.80;99.90
17174;DHT22;8702;48.130;-1.696;2024-03-23T03:30:31;7.70;99.90
17174;DHT22;8702;48.130;-1.696;2024-03-23T03:32:59;7.60;99.90
17174;DHT22;8702;48.130;-1.696;2024-03-23T03:35:25;7.50;99.90
17174;DHT22;8702;48.130;-1.696;2024-03-23T03:37:52;7.40;99.90
17174;DHT22;8702;48.130;-1.696;2024-03-23T03:40:18;7.30;99.90
17174;DHT22;8702;48.130;-1.696;2024-03-23T03:42:44;7.30;99.90
17174;DHT22;8702;48.130;-1.696;2024-03-23T03:45:10;7.20;99.90
17174;DHT22;8702;48.130;-1.696;2024-03-23T03:47:37;7.20;99.90
17174;DHT22;8702;48.130;-1.696;2024-03-23T03:50:05;7.20;99.90
17174;DHT22;8702;48.130;-1.696;2024-03-23T03:52:32;7.20;99.90
17174;DHT22;8702;48.130;-1.696;2024-03-23T03:55:01;7.20;99.90
17174;DHT22;8702;48.130;-1.696;2024-03-23T03:57:29;7.20;99.90
17174;DHT22;8702;48.130;-1.696;2024-03-23T03:59:55;7.10;99.90
17174;DHT22;8702;48.130;-1.696;2024-03-23T04:02:21;7.20;99.90
17174;DHT22;8702;48.130;-1.696;2024-03-23T04:04:47;7.10;99.90
17174;DHT22;8702;48.130;-1.696;2024-03-23T04:07:15;7.10;99.90
17174;DHT22;8702;48.130;-1.696;2024-03-23T04:09:43;7.10;99.90
17174;DHT22;8702;48.130;-1.696;2024-03-23T04:12:09;7.10;99.90
17174;DHT22;8702;48.130;-1.696;2024-03-23T04:14:35;7.00;99.90
17174;DHT22;8702;48.130;-1.696;2024-03-23T04:17:02;7.10;99.90
17174;DHT22;8702;48.130;-1.696;2024-03-23T04:19:28;7.10;99.90
17174;DHT22;8702;48.130;-1.696;2024-03-23T04:21:55;7.10;99.90
17174;DHT22;8702;48.130;-1.696;2024-03-23T04:24:22;7.10;99.90
17174;DHT22;8702;48.130;-1.696;2024-03-23T04:26:50;7.10;99.90
17174;DHT22;8702;48.130;-1.696;2024-03-23T04:29:16;7.10;99.90
17174;DHT22;8702;48.130;-1.696;2024-03-23T04:31:43;7.10;99.90
17174;DHT22;8702;48.130;-1.696;2024-03-23T04:34:08;7.00;99.90
17174;DHT22;8702;48.130;-1.696;2024-03-23T04:36:35;7.00;99.90
17174;DHT22;8702;48.130;-1.696;2024-03-23T04:39:01;7.00;99.90
17174;DHT22;8702;48.130;-1.696;2024-03-23T04:41:30;7.00;99.90
17174;DHT22;8702;48.130;-1.696;2024-03-23T04:43:57;7.00;99.90
17174;DHT22;8702;48.130;-1.696;2024-03-23T04:46:23;7.00;99.90
17174;DHT22;8702;48.130;-1.696;2024-03-23T04:48:50;7.00;99.90
17174;DHT22;8702;48.130;-1.696;2024-03-23T04:51:20;7.00;99.90
17174;DHT22;8702;48.130;-1.696;2024-03-23T04:53:48;6.90;99.90
17174;DHT22;8702;48.130;-1.696;2024-03-23T04:56:14;6.90;99.90
17174;DHT22;8702;48.130;-1.696;2024-03-23T04:58:43;7.20;99.90
17174;DHT22;8702;48.130;-1.696;2024-03-23T05:01:10;7.30;99.90
17174;DHT22;8702;48.130;-1.696;2024-03-23T05:03:37;7.30;99.90
17174;DHT22;8702;48.130;-1.696;2024-03-23T05:06:03;7.20;99.90
17174;DHT22;8702;48.130;-1.696;2024-03-23T05:08:31;7.20;99.90
17174;DHT22;8702;48.130;-1.696;2024-03-23T05:10:57;7.30;99.90
17174;DHT22;8702;48.130;-1.696;2024-03-23T05:13:23;7.20;99.90
17174;DHT22;8702;48.130;-1.696;2024-03-23T05:15:53;7.20;99.90
17174;DHT22;8702;48.130;-1.696;2024-03-23T05:18:20;7.20;99.90
17174;DHT22;8702;48.130;-1.696;2024-03-23T05:20:46;7.10;99.90
17174;DHT22;8702;48.130;-1.696;2024-03-23T05:23:12;7.10;99.90
17174;DHT22;8702;48.130;-1.696;2024-03-23T05:25:38;7.00;99.90
17174;DHT22;8702;48.130;-1.696;2024-03-23T05:28:05;7.00;99.90
17174;DHT22;8702;48.130;-1.696;2024-03-23T05:30:32;6.90;99.90
17174;DHT22;8702;48.130;-1.696;2024-03-23T05:33:00;6.90;99.90
17174;DHT22;8702;48.130;-1.696;2024-03-23T05:35:26;6.90;99.90
17174;DHT22;8702;48.130;-1.696;2024-03-23T05:37:52;6.90;99.90
17174;DHT22;8702;48.130;-1.696;2024-03-23T05:40:18;6.90;99.90
17174;DHT22;8702;48.130;-1.696;2024-03-23T05:42:45;7.00;99.90
17174;DHT22;8702;48.130;-1.696;2024-03-23T05:45:11;6.90;99.90
17174;DHT22;8702;48.130;-1.696;2024-03-23T05:47:38;6.80;99.90
17174;DHT22;8702;48.130;-1.696;2024-03-23T05:50:05;6.80;99.90
17174;DHT22;8702;48.130;-1.696;2024-03-23T05:52:35;6.70;99.90
17174;DHT22;8702;48.130;-1.696;2024-03-23T05:55:01;6.70;99.90
17174;DHT22;8702;48.130;-1.696;2024-03-23T05:57:28;6.70;99.90
17174;DHT22;8702;48.130;-1.696;2024-03-23T05:59:54;6.70;99.90
17174;DHT22;8702;48.130;-1.696;2024-03-23T06:02:21;6.50;99.90
17174;DHT22;8702;48.130;-1.696;2024-03-23T06:04:47;6.60;99.90
17174;DHT22;8702;48.130;-1.696;2024-03-23T06:07:16;6.60;99.90
17174;DHT22;8702;48.130;-1.696;2024-03-23T06:09:42;6.60;99.90
17174;DHT22;8702;48.130;-1.696;2024-03-23T06:12:09;6.60;99.90
17174;DHT22;8702;48.130;-1.696;2024-03-23T06:14:35;6.60;99.90
17174;DHT22;8702;48.130;-1.696;2024-03-23T06:17:01;6.60;99.90
17174;DHT22;8702;48.130;-1.696;2024-03-23T06:19:27;6.60;99.90
17174;DHT22;8702;48.130;-1.696;2024-03-23T06:21:54;6.70;99.90
17174;DHT22;8702;48.130;-1.696;2024-03-23T06:24:22;6.70;99.90
17174;DHT22;8702;48.130;-1.696;2024-03-23T06:26:50;6.70;99.90
17174;DHT22;8702;48.130;-1.696;2024-03-23T06:29:15;6.70;99.90
17174;DHT22;8702;48.130;-1.696;2024-03-23T06:31:42;6.70;99.90
17174;DHT22;8702;48.130;-1.696;2024-03-23T06:34:08;6.70;99.90
17174;DHT22;8702;48.130;-1.696;2024-03-23T06:36:35;6.70;99.90
17174;DHT22;8702;48.130;-1.696;2024-03-23T06:39:04;6.70;99.90
17174;DHT22;8702;48.130;-1.696;2024-03-23T06:41:32;6.70;99.90
17174;DHT22;8702;48.130;-1.696;2024-03-23T06:43:58;6.70;99.90
17174;DHT22;8702;48.130;-1.696;2024-03-23T06:46:24;6.80;99.90
17174;DHT22;8702;48.130;-1.696;2024-03-23T06:48:50;6.80;99.90
17174;DHT22;8702;48.130;-1.696;2024-03-23T06:51:17;6.70;99.90
17174;DHT22;8702;48.130;-1.696;2024-03-23T06:53:43;6.80;99.90
17174;DHT22;8702;48.130;-1.696;2024-03-23T06:56:10;6.80;99.90
17174;DHT22;8702;48.130;-1.696;2024-03-23T06:58:37;6.90;99.90
17174;DHT22;8702;48.130;-1.696;2024-03-23T07:01:04;6.90;99.90
17174;DHT22;8702;48.130;-1.696;2024-03-23T07:03:29;7.00;99.90
17174;DHT22;8702;48.130;-1.696;2024-03-23T07:05:58;6.90;99.90
17174;DHT22;8702;48.130;-1.696;2024-03-23T07:08:23;7.00;99.90
17174;DHT22;8702;48.130;-1.696;2024-03-23T07:10:50;7.00;99.90
17174;DHT22;8702;48.130;-1.696;2024-03-23T07:13:16;7.00;99.90
17174;DHT22;8702;48.130;-1.696;2024-03-23T07:15:51;7.00;99.90
17174;DHT22;8702;48.130;-1.696;2024-03-23T07:18:17;7.10;99.90
17174;DHT22;8702;48.130;-1.696;2024-03-23T07:20:52;7.10;99.90
17174;DHT22;8702;48.130;-1.696;2024-03-23T07:23:18;7.80;99.90
17174;DHT22;8702;48.130;-1.696;2024-03-23T07:25:44;7.20;99.90
17174;DHT22;8702;48.130;-1.696;2024-03-23T07:28:10;7.30;99.90
17174;DHT22;8702;48.130;-1.696;2024-03-23T07:30:37;7.30;99.90
17174;DHT22;8702;48.130;-1.696;2024-03-23T07:33:04;7.30;99.90
17174;DHT22;8702;48.130;-1.696;2024-03-23T07:35:31;7.30;99.90
17174;DHT22;8702;48.130;-1.696;2024-03-23T07:37:57;7.20;99.90
17174;DHT22;8702;48.130;-1.696;2024-03-23T07:40:30;7.30;99.90
17174;DHT22;8702;48.130;-1.696;2024-03-23T07:42:56;7.40;99.90
17174;DHT22;8702;48.130;-1.696;2024-03-23T07:45:23;7.50;99.90
17174;DHT22;8702;48.130;-1.696;2024-03-23T07:47:49;7.50;99.90
17174;DHT22;8702;48.130;-1.696;2024-03-23T07:50:17;7.60;99.90
17174;DHT22;8702;48.130;-1.696;2024-03-23T07:52:43;7.70;99.90
17174;DHT22;8702;48.130;-1.696;2024-03-23T07:55:10;7.70;99.90
17174;DHT22;8702;48.130;-1.696;2024-03-23T07:57:36;5.50;99.90
17174;DHT22;8702;48.130;-1.696;2024-03-23T08:00:03;7.70;99.90
17174;DHT22;8702;48.130;-1.696;2024-03-23T08:02:30;7.80;99.90
17174;DHT22;8702;48.130;-1.696;2024-03-23T08:04:56;7.90;99.90
17174;DHT22;8702;48.130;-1.696;2024-03-23T08:07:24;8.00;99.90
17174;DHT22;8702;48.130;-1.696;2024-03-23T08:09:51;8.00;99.90
17174;DHT22;8702;48.130;-1.696;2024-03-23T08:12:17;8.00;99.90
17174;DHT22;8702;48.130;-1.696;2024-03-23T08:14:46;8.10;99.90
17174;DHT22;8702;48.130;-1.696;2024-03-23T08:17:13;8.10;99.90
17174;DHT22;8702;48.130;-1.696;2024-03-23T08:19:39;8.10;99.90
17174;DHT22;8702;48.130;-1.696;2024-03-23T08:22:06;8.20;99.90
17174;DHT22;8702;48.130;-1.696;2024-03-23T08:24:34;8.20;99.90
17174;DHT22;8702;48.130;-1.696;2024-03-23T08:27:01;8.30;99.90
17174;DHT22;8702;48.130;-1.696;2024-03-23T08:29:27;8.40;99.90
17174;DHT22;8702;48.130;-1.696;2024-03-23T08:31:54;8.50;99.90
17174;DHT22;8702;48.130;-1.696;2024-03-23T08:34:19;8.50;99.90
17174;DHT22;8702;48.130;-1.696;2024-03-23T08:36:46;8.40;99.90
17174;DHT22;8702;48.130;-1.696;2024-03-23T08:39:12;8.40;99.90
17174;DHT22;8702;48.130;-1.696;2024-03-23T08:41:40;8.40;99.90
17174;DHT22;8702;48.130;-1.696;2024-03-23T08:44:08;8.40;99.90
17174;DHT22;8702;48.130;-1.696;2024-03-23T08:46:35;8.60;99.90
17174;DHT22;8702;48.130;-1.696;2024-03-23T08:53:54;8.90;99.90
17174;DHT22;8702;48.130;-1.696;2024-03-23T08:56:21;8.90;99.90
17174;DHT22;8702;48.130;-1.696;2024-03-23T08:58:48;8.90;99.90
17174;DHT22;8702;48.130;-1.696;2024-03-23T09:01:15;9.10;99.90
17174;DHT22;8702;48.130;-1.696;2024-03-23T09:03:41;9.10;99.90
17174;DHT22;8702;48.130;-1.696;2024-03-23T09:06:09;9.00;99.90
17174;DHT22;8702;48.130;-1.696;2024-03-23T09:08:35;9.00;99.90
17174;DHT22;8702;48.130;-1.696;2024-03-23T09:11:04;8.90;99.90
17174;DHT22;8702;48.130;-1.696;2024-03-23T09:13:31;9.00;99.90
17174;DHT22;8702;48.130;-1.696;2024-03-23T09:15:59;9.00;99.90
17174;DHT22;8702;48.130;-1.696;2024-03-23T09:18:25;9.10;99.90
17174;DHT22;8702;48.130;-1.696;2024-03-23T09:20:52;9.10;99.90
17174;DHT22;8702;48.130;-1.696;2024-03-23T09:23:18;9.10;99.90
17174;DHT22;8702;48.130;-1.696;2024-03-23T09:25:45;9.20;99.90
17174;DHT22;8702;48.130;-1.696;2024-03-23T09:28:11;9.30;99.90
17174;DHT22;8702;48.130;-1.696;2024-03-23T09:30:38;9.40;99.90
17174;DHT22;8702;48.130;-1.696;2024-03-23T09:33:09;9.40;99.90
17174;DHT22;8702;48.130;-1.696;2024-03-23T09:35:37;9.50;99.90
17174;DHT22;8702;48.130;-1.696;2024-03-23T09:40:31;9.60;99.90
17174;DHT22;8702;48.130;-1.696;2024-03-23T09:42:57;9.60;99.90
17174;DHT22;8702;48.130;-1.696;2024-03-23T09:45:27;9.70;99.90
17174;DHT22;8702;48.130;-1.696;2024-03-23T09:47:53;9.60;99.90
17174;DHT22;8702;48.130;-1.696;2024-03-23T09:50:22;9.80;99.90
17174;DHT22;8702;48.130;-1.696;2024-03-23T09:52:48;9.90;99.90
17174;DHT22;8702;48.130;-1.696;2024-03-23T09:55:15;10.00;99.90
17174;DHT22;8702;48.130;-1.696;2024-03-23T09:57:41;10.10;99.90
17174;DHT22;8702;48.130;-1.696;2024-03-23T10:00:09;10.20;99.90
17174;DHT22;8702;48.130;-1.696;2024-03-23T10:02:35;10.10;99.90
17174;DHT22;8702;48.130;-1.696;2024-03-23T10:05:05;10.00;99.90
17174;DHT22;8702;48.130;-1.696;2024-03-23T10:07:46;9.90;99.90
17174;DHT22;8702;48.130;-1.696;2024-03-23T10:10:13;10.10;99.90
17174;DHT22;8702;48.130;-1.696;2024-03-23T10:12:44;10.10;99.90
17174;DHT22;8702;48.130;-1.696;2024-03-23T10:15:18;10.10;99.90
17174;DHT22;8702;48.130;-1.696;2024-03-23T19:30:29;8.50;99.90
17174;DHT22;8702;48.130;-1.696;2024-03-23T19:32:56;8.40;99.90
17174;DHT22;8702;48.130;-1.696;2024-03-23T19:35:24;8.50;99.90
17174;DHT22;8702;48.130;-1.696;2024-03-23T19:37:50;8.40;99.90
17174;DHT22;8702;48.130;-1.696;2024-03-23T19:40:18;8.50;99.90
17174;DHT22;8702;48.130;-1.696;2024-03-23T19:42:44;8.60;99.90
17174;DHT22;8702;48.130;-1.696;2024-03-23T19:45:11;8.50;99.90
17174;DHT22;8702;48.130;-1.696;2024-03-23T19:47:38;8.60;99.90
17174;DHT22;8702;48.130;-1.696;2024-03-23T19:50:06;8.70;99.90
17174;DHT22;8702;48.130;-1.696;2024-03-23T19:52:34;8.70;99.90
17174;DHT22;8702;48.130;-1.696;2024-03-23T19:57:28;8.90;99.90
17174;DHT22;8702;48.130;-1.696;2024-03-23T19:59:55;8.70;99.90
17174;DHT22;8702;48.130;-1.696;2024-03-23T20:02:21;8.60;99.90
17174;DHT22;8702;48.130;-1.696;2024-03-23T20:04:48;8.60;99.90
17174;DHT22;8702;48.130;-1.696;2024-03-23T20:07:14;8.60;99.90
17174;DHT22;8702;48.130;-1.696;2024-03-23T20:09:41;8.70;99.90
17174;DHT22;8702;48.130;-1.696;2024-03-23T20:12:07;8.70;99.90
17174;DHT22;8702;48.130;-1.696;2024-03-23T20:14:36;8.70;99.90
17174;DHT22;8702;48.130;-1.696;2024-03-23T20:17:03;8.70;99.90
17174;DHT22;8702;48.130;-1.696;2024-03-23T20:19:30;8.70;99.90
17174;DHT22;8702;48.130;-1.696;2024-03-23T20:21:59;8.80;99.90
17174;DHT22;8702;48.130;-1.696;2024-03-23T20:24:26;8.90;99.90
17174;DHT22;8702;48.130;-1.696;2024-03-23T20:26:52;8.90;99.90
17174;DHT22;8702;48.130;-1.696;2024-03-23T20:29:19;8.80;99.90
17174;DHT22;8702;48.130;-1.696;2024-03-23T20:31:47;8.70;99.90
17174;DHT22;8702;48.130;-1.696;2024-03-23T20:34:13;8.60;99.90
17174;DHT22;8702;48.130;-1.696;2024-03-23T20:36:39;8.60;99.90
17174;DHT22;8702;48.130;-1.696;2024-03-23T20:39:06;8.70;99.90
17174;DHT22;8702;48.130;-1.696;2024-03-23T20:41:32;8.50;99.90
17174;DHT22;8702;48.130;-1.696;2024-03-23T20:43:59;8.50;99.90
17174;DHT22;8702;48.130;-1.696;2024-03-23T20:46:25;8.50;99.90
17174;DHT22;8702;48.130;-1.696;2024-03-23T20:48:53;8.50;99.90
17174;DHT22;8702;48.130;-1.696;2024-03-23T20:51:19;8.50;99.90
17174;DHT22;8702;48.130;-1.696;2024-03-23T20:53:46;8.50;99.90
17174;DHT22;8702;48.130;-1.696;2024-03-23T20:56:12;8.50;99.90
17174;DHT22;8702;48.130;-1.696;2024-03-23T20:58:39;8.50;99.90
17174;DHT22;8702;48.130;-1.696;2024-03-23T21:01:06;8.50;99.90
17174;DHT22;8702;48.130;-1.696;2024-03-23T21:03:35;8.50;99.90
17174;DHT22;8702;48.130;-1.696;2024-03-23T21:06:03;8.50;99.90
17174;DHT22;8702;48.130;-1.696;2024-03-23T21:08:32;8.40;99.90
17174;DHT22;8702;48.130;-1.696;2024-03-23T21:10:59;8.40;99.90
17174;DHT22;8702;48.130;-1.696;2024-03-23T21:13:28;8.40;99.90
17174;DHT22;8702;48.130;-1.696;2024-03-23T21:15:55;8.40;99.90
17174;DHT22;8702;48.130;-1.696;2024-03-23T21:18:25;8.30;99.90
17174;DHT22;8702;48.130;-1.696;2024-03-23T21:20:54;8.30;99.90
17174;DHT22;8702;48.130;-1.696;2024-03-23T21:23:24;8.30;99.90
17174;DHT22;8702;48.130;-1.696;2024-03-23T21:25:56;8.20;99.90
17174;DHT22;8702;48.130;-1.696;2024-03-23T21:28:23;8.20;99.90
17174;DHT22;8702;48.130;-1.696;2024-03-23T21:30:49;8.20;99.90
17174;DHT22;8702;48.130;-1.696;2024-03-23T21:33:16;8.10;99.90
17174;DHT22;8702;48.130;-1.696;2024-03-23T21:35:42;8.20;99.90
17174;DHT22;8702;48.130;-1.696;2024-03-23T21:38:09;8.20;99.90
17174;DHT22;8702;48.130;-1.696;2024-03-23T21:40:36;8.20;99.90
17174;DHT22;8702;48.130;-1.696;2024-03-23T21:43:03;8.30;99.90
17174;DHT22;8702;48.130;-1.696;2024-03-23T21:45:30;8.20;99.90
17174;DHT22;8702;48.130;-1.696;2024-03-23T21:47:57;8.30;99.90
17174;DHT22;8702;48.130;-1.696;2024-03-23T21:50:23;8.30;99.90
17174;DHT22;8702;48.130;-1.696;2024-03-23T21:52:49;8.30;99.90
17174;DHT22;8702;48.130;-1.696;2024-03-23T21:55:15;8.30;99.90
17174;DHT22;8702;48.130;-1.696;2024-03-23T21:57:47;8.40;99.90
17174;DHT22;8702;48.130;-1.696;2024-03-23T22:00:14;8.30;99.90
17174;DHT22;8702;48.130;-1.696;2024-03-23T22:02:40;8.50;99.90
17174;DHT22;8702;48.130;-1.696;2024-03-23T22:05:07;8.50;99.90
17174;DHT22;8702;48.130;-1.696;2024-03-23T22:07:35;8.50;99.90
17174;DHT22;8702;48.130;-1.696;2024-03-23T22:10:01;8.40;99.90
17174;DHT22;8702;48.130;-1.696;2024-03-23T22:12:28;8.50;99.90
17174;DHT22;8702;48.130;-1.696;2024-03-23T22:14:56;8.40;99.90
17174;DHT22;8702;48.130;-1.696;2024-03-23T22:17:22;8.40;99.90
17174;DHT22;8702;48.130;-1.696;2024-03-23T22:19:50;8.20;99.90
17174;DHT22;8702;48.130;-1.696;2024-03-23T22:22:16;8.20;99.90
17174;DHT22;8702;48.130;-1.696;2024-03-23T22:24:42;8.10;99.90
17174;DHT22;8702;48.130;-1.696;2024-03-23T22:27:09;8.10;99.90
17174;DHT22;8702;48.130;-1.696;2024-03-23T22:29:35;8.10;99.90
17174;DHT22;8702;48.130;-1.696;2024-03-23T22:32:03;8.00;99.90
17174;DHT22;8702;48.130;-1.696;2024-03-23T22:34:29;7.90;99.90
17174;DHT22;8702;48.130;-1.696;2024-03-23T22:36:56;7.80;99.90
17174;DHT22;8702;48.130;-1.696;2024-03-23T22:39:22;7.80;99.90
17174;DHT22;8702;48.130;-1.696;2024-03-23T22:41:49;7.80;99.90
17174;DHT22;8702;48.130;-1.696;2024-03-23T22:44:15;7.80;99.90
17174;DHT22;8702;48.130;-1.696;2024-03-23T22:46:42;7.80;99.90
17174;DHT22;8702;48.130;-1.696;2024-03-23T22:49:09;7.80;99.90
17174;DHT22;8702;48.130;-1.696;2024-03-23T22:51:36;7.80;99.90
17174;DHT22;8702;48.130;-1.696;2024-03-23T22:54:02;7.80;99.90
17174;DHT22;8702;48.130;-1.696;2024-03-23T22:56:29;7.80;99.90
17174;DHT22;8702;48.130;-1.696;2024-03-23T22:58:54;7.80;99.90
17174;DHT22;8702;48.130;-1.696;2024-03-23T23:01:21;7.90;99.90
17174;DHT22;8702;48.130;-1.696;2024-03-23T23:03:47;7.90;99.90
17174;DHT22;8702;48.130;-1.696;2024-03-23T23:06:16;7.90;99.90
17174;DHT22;8702;48.130;-1.696;2024-03-23T23:08:41;7.90;99.90
17174;DHT22;8702;48.130;-1.696;2024-03-23T23:11:08;8.00;99.90
17174;DHT22;8702;48.130;-1.696;2024-03-23T23:13:34;7.90;99.90
17174;DHT22;8702;48.130;-1.696;2024-03-23T23:16:01;8.00;99.90
17174;DHT22;8702;48.130;-1.696;2024-03-23T23:18:27;8.00;99.90
17174;DHT22;8702;48.130;-1.696;2024-03-23T23:20:55;8.00;99.90
17174;DHT22;8702;48.130;-1.696;2024-03-23T23:23:23;8.00;99.90
17174;DHT22;8702;48.130;-1.696;2024-03-23T23:25:50;7.90;99.90
17174;DHT22;8702;48.130;-1.696;2024-03-23T23:28:18;7.90;99.90
17174;DHT22;8702;48.130;-1.696;2024-03-23T23:30:54;7.90;99.90
17174;DHT22;8702;48.130;-1.696;2024-03-23T23:33:20;7.80;99.90
17174;DHT22;8702;48.130;-1.696;2024-03-23T23:35:47;7.70;99.90
17174;DHT22;8702;48.130;-1.696;2024-03-23T23:38:13;7.80;99.90
17174;DHT22;8702;48.130;-1.696;2024-03-23T23:40:41;7.80;99.90
17174;DHT22;8702;48.130;-1.696;2024-03-23T23:43:07;7.80;99.90
17174;DHT22;8702;48.130;-1.696;2024-03-23T23:45:34;7.80;99.90
17174;DHT22;8702;48.130;-1.696;2024-03-23T23:48:00;7.90;99.90
17174;DHT22;8702;48.130;-1.696;2024-03-23T23:50:27;7.80;99.90
17174;DHT22;8702;48.130;-1.696;2024-03-23T23:52:53;7.70;99.90
17174;DHT22;8702;48.130;-1.696;2024-03-23T23:55:19;7.70;99.90
17174;DHT22;8702;48.130;-1.696;2024-03-23T23:57:47;7.60;99.90
